Fairfax, VA

5:14 PM EST on December 09, 2016 (GMT -0500)
Coleridge Drive | | Change Station

Elev 383 ft 38.82 °N, 77.29 °W | Updated 3 minutes ago

Clear
Clear
33.1 °F
Feels Like 33 °F
N
1.2
Wind Variable Wind from SW
Gusts 5.6 mph

Today
High -- | Low -- °F
--% Chance of Precip.
Yesterday
High -- | Low -- °F
Precip. -- in
Pressure 30.40 in
Visibility 10.0 miles
Clouds Clear
Windchill 33 °F
Dew Point 22 °F
Humidity 62%
Rainfall Not available.
Snow Depth Not available.
7:16 AM 4:47 PM
Waxing Gibbous, 77% visible
METAR KDAA 092158Z AUTO 30009KT 10SM CLR 02/M10 A3038 RMK AO2 SLP292 T00151097
Pressure 30.40 in
Visibility 10.0 miles
Clouds Clear
Windchill 33 °F
Dew Point 22 °F
Humidity 62%
Rainfall Not available.
Snow Depth Not available.
7:16 AM 4:47 PM
Waxing Gibbous, 77% visible
METAR KDAA 092158Z AUTO 30009KT 10SM CLR 02/M10 A3038 RMK AO2 SLP292 T00151097

10-Day Weather Forecast

Almanac

Astronomy

Dec. 09, 2016 Rise Set
Actual Time
Civil Twilight
Nautical Twilight
Astronomical Twilight
Moon
Length of Visible Light
Length of Day
Tomorrow will be .
, % of the Moon is Illuminated

Today's Extremes

State Highs State Lows

Community

WunderPhotos

Upload Photos

1,956,535 photos uploaded!

WunderBlog® & News

Nearby

Air Quality

  Air Quality AQ Index Pollutant
Not available.

Snow Depth

Station Depth Elevation

Earthquake Activity

City Distance Mag. Time & Date
Minimum magnitude displayed is 2.5.

Coastal Water Temperatures

Place Temperature

Stations

Nearby Weather Stations

Station Location Temp. Windchill Dew Point Humidity Wind Precip. Elev Updated Type
                   

Watches & Warnings

There are currently no watches in effect.